• Join FlightAware (Why Join?)
  • Login
  • US Flag 
09:38PM EDT


 

Airport Tracker/Info


-or-


 

Live Flight TrackerFlight Track Log ✈ ASQ5871 ✈ 28-May-2012 ✈ KORD - KABE

Flight Track Log - Related Links

Times and Time Zones

All times are in EDT time to prevent confusion due to time zone crossing. See the ASQ5871 flight status page for this flight to view local times or setup timezone preferences in your user account.

Time Position Orientation Groundspeed Altitude Reporting Facility
EDT Latitude Longitude Course Direction KTS MPH feet Rate Location/Type
04:03PM 41.9333 -87.8500 88° East 217 250 3,300  Level Chicago TRACON
04:08PM 41.9456 -87.3567 90° East 301 346 10,900 1,620 Climbing Chicago Center
04:09PM 41.9453 -87.2253 89° East 322 371 12,400 1,560 Climbing Chicago Center
04:10PM 41.9467 -87.0914 88° East 346 398 14,100 1,740 Climbing Chicago Center
04:11PM 41.9503 -86.9544 98° East 356 410 15,900 1,740 Climbing Chicago Center
04:12PM 41.9369 -86.8208 106° East 356 410 17,600 1,680 Climbing Chicago Center
04:13PM 41.9089 -86.6908 104° East 361 415 19,300 1,680 Climbing Chicago Center
04:14PM 41.8850 -86.5606 101° East 371 427 21,000 1,740 Climbing Chicago Center
04:15PM 41.8650 -86.4278 93° East 366 421 22,800 1,380 Climbing Chicago Center
04:16PM 41.8592 -86.2858 93° East 372 428 23,800 1,020 Climbing Chicago Center
04:17PM 41.8531 -86.1383 92° East 377 434 24,900 1,140 Climbing Chicago Center
04:18PM 41.8489 -85.9908 92° East 389 448 26,100 1,020 Climbing Chicago Center
04:19PM 41.8450 -85.8600 93° East 396 456 27,000 420 Climbing Chicago Center
04:20PM 41.8378 -85.6986 93° East 413 475 27,000  Level Chicago Center
04:21PM 41.8297 -85.5094 93° East 435 501 27,000  Level Chicago Center
04:22PM 41.8233 -85.3286 94° East 462 532 27,000  Level Chicago Center
04:23PM 41.8147 -85.1481 94° East 476 548 27,000  Level Chicago Center
04:24PM 41.8067 -84.9842 94° East 492 566 27,000  Level Chicago Center
04:25PM 41.7939 -84.7697 94° East 484 557 27,000  Level Cleveland Center
04:26PM 41.7844 -84.5683 93° East 490 564 27,000  Level Cleveland Center
04:27PM 41.7761 -84.3814 89° East 501 577 27,000  Level Cleveland Center
04:28PM 41.7772 -84.2172 91° East 501 577 27,000 -60 Level Cleveland Center
04:29PM 41.7747 -84.0331 90° East 496 571 26,900  Descending Cleveland Center
04:30PM 41.7739 -83.8464 91° East 496 571 27,000  Climbing Cleveland Center
04:31PM 41.7706 -83.6597 93° East 501 577 27,000  Level Cleveland Center
04:32PM 41.7628 -83.4811 98° East 501 577 27,000  Level Cleveland Center
04:33PM 41.7444 -83.2994 98° East 501 577 27,000  Level Cleveland Center
04:34PM 41.7256 -83.1206 96° East 493 567 27,000  Level Cleveland Center
04:35PM 41.7089 -82.9225 99° East 483 556 27,000  Level Cleveland Center
04:36PM 41.6872 -82.7464 97° East 483 556 27,000  Level Cleveland Center
04:37PM 41.6697 -82.5678 98° East 483 556 27,000  Level Cleveland Center
04:38PM 41.6517 -82.3922 97° East 483 556 27,000  Level Cleveland Center
04:39PM 41.6356 -82.2167 98° East 483 556 27,000  Level Cleveland Center
04:40PM 41.6172 -82.0442 98° East 483 556 27,000  Level Cleveland Center
04:41PM 41.6003 -81.8828 98° East 483 556 27,000  Level Cleveland Center
04:42PM 41.5814 -81.7103 99° East 483 556 27,000  Level Cleveland Center
04:43PM 41.5600 -81.5378 99° East 478 550 27,000  Level Cleveland Center
04:44PM 41.5403 -81.3628 99° East 471 542 27,000  Level Cleveland Center
04:45PM 41.5186 -81.1767 98° East 466 536 27,000  Level Cleveland Center
04:46PM 41.5006 -81.0072 95° East 466 536 27,000  Level Cleveland Center
04:47PM 41.4886 -80.8353 97° East 464 534 27,000  Level Cleveland Center
04:48PM 41.4722 -80.6664 98° East 464 534 27,000  Level Cleveland Center
04:49PM 41.4556 -80.5000 96° East 464 534 27,000  Level Cleveland Center
04:50PM 41.4428 -80.3450 97° East 464 534 27,000  Level Cleveland Center
04:51PM 41.4278 -80.1789 98° East 464 534 27,000  Level Cleveland Center
04:52PM 41.4103 -80.0044 97° East 469 540 27,000  Level Cleveland Center
04:53PM 41.3947 -79.8303 98° East 469 540 27,000  Level Cleveland Center
04:54PM 41.3767 -79.6617 97° East 464 534 27,000  Level Cleveland Center
04:55PM 41.3606 -79.4847 98° East 469 540 27,000  Level Cleveland Center
04:56PM 41.3422 -79.3108 98° East 469 540 27,000 -60 Level Cleveland Center
04:57PM 41.3233 -79.1400 97° East 469 540 26,900 -420 Descending Cleveland Center
04:58PM 41.3067 -78.9717 98° East 464 534 26,200 -720 Descending Cleveland Center
04:59PM 41.2894 -78.8008 98° East 464 534 25,500 -600 Descending Cleveland Center
05:00PM 41.2719 -78.6272 99° East 464 534 25,000 -180 Descending Cleveland Center
05:02PM 41.2339 -78.3117 99° East 476 548 25,000  Level New York Center
05:03PM 41.2133 -78.1439 98° East 476 548 25,000  Level New York Center
05:04PM 41.1944 -77.9764 99° East 465 535 25,000  Level New York Center
05:05PM 41.1733 -77.8058 100° East 465 535 25,000 -660 Level New York Center
05:06PM 41.1517 -77.6436 100° East 460 529 23,700 -1,440 Descending New York Center
05:07PM 41.1300 -77.4761 100° East 460 529 22,200 -1,620 Descending New York Center
05:08PM 41.1047 -77.2947 103° East 455 524 20,600 -1,680 Descending New York Center
05:09PM 41.0778 -77.1350 104° East 448 516 18,900 -1,680 Descending New York Center
05:10PM 41.0486 -76.9811 105° East 437 503 17,300 -1,680 Descending New York Center
05:11PM 41.0219 -76.8492 105° East 426 490 15,600 -1,740 Descending New York Center
05:12PM 40.9939 -76.7064 103° East 411 473 13,900 -1,740 Descending New York Center
05:13PM 40.9661 -76.5531 105° East 390 449 12,100 -1,440 Descending New York Center
05:14PM 40.9392 -76.4161 104° East 382 440 11,000 -600 Descending New York Center
05:15PM 40.9158 -76.2933 104° East 382 440 11,000 -240 Level New York Center
05:16PM 40.8925 -76.1706 106° East 368 423 10,600 -1,020 Descending New York Center
05:17PM 40.8683 -76.0561 104° East 311 358 9,000 -840 Descending New York Center
05:18PM 40.8497 -75.9586 104° East 304 350 9,000 -600 Level New York Center
05:19PM 40.8294 -75.8528 102° East 304 350 7,800 -1,620 Descending New York Center
05:20PM 40.8114 -75.7392 99° East 290 334 5,800 -1,920 Descending New York Center
05:21PM 40.7989 -75.6394 99° East 281 323 4,100 -1,380 Descending New York Center
05:22PM 40.7881 -75.5456 113° Southeast 270 311 3,200 -780 Descending New York Center
05:23PM 40.7658 -75.4781 125° Southeast 240 276 2,600 -420 Descending New York Center
05:24PM 40.7308 -75.4128 156° South 218 251 2,400 -600 Descending New York Center
05:25PM 40.6881 -75.3881 135° Southeast 187 215 1,400 4,200 Descending New York Center
05:26PM 40.6464 -75.3333 146° Southeast 187 215 11,000 4,860 Climbing New York Center
05:27PM 40.6061 -75.2978 144° Southeast 187 215 11,000  Level New York Center
05:28PM 40.5658 -75.2594 146° Southeast 187 215 11,000  Level New York Center
05:29PM 40.5256 -75.2242 146° Southeast 187 215 11,000  Level New York Center